createdAt,value
2022-09-02T00:01:37.546Z,17.07
2022-09-02T00:04:15.305Z,17.01
2022-09-02T00:06:43.840Z,17.03
2022-09-02T00:09:13.552Z,17.00
2022-09-02T00:11:42.510Z,16.81
2022-09-02T00:14:19.300Z,16.87
2022-09-02T00:16:51.732Z,17.02
2022-09-02T00:19:25.407Z,16.98
2022-09-02T00:21:55.055Z,16.98
2022-09-02T00:24:23.632Z,16.80
2022-09-02T00:26:50.717Z,16.88
2022-09-02T00:29:24.957Z,16.85
2022-09-02T00:31:52.345Z,16.85
2022-09-02T00:34:19.360Z,16.84
2022-09-02T00:36:47.277Z,16.74
2022-09-02T00:39:14.282Z,16.71
2022-09-02T00:41:43.556Z,16.60
2022-09-02T00:44:16.081Z,16.71
2022-09-02T00:46:42.941Z,16.71
2022-09-02T00:49:26.605Z,16.71
2022-09-02T00:52:08.292Z,16.62
2022-09-02T00:54:41.767Z,16.51
2022-09-02T00:57:17.875Z,16.54
2022-09-02T01:00:09.438Z,16.58
2022-09-02T01:02:39.166Z,16.59
2022-09-02T01:05:11.983Z,16.34
2022-09-02T01:07:39.965Z,16.38
2022-09-02T01:10:12.363Z,16.47
2022-09-02T01:12:39.344Z,16.21
2022-09-02T01:15:09.326Z,16.43
2022-09-02T01:17:40.215Z,16.37
2022-09-02T01:20:12.818Z,16.31
2022-09-02T01:22:42.181Z,16.25
2022-09-02T01:25:19.954Z,16.34
2022-09-02T01:27:48.396Z,16.41
2022-09-02T01:30:23.886Z,16.11
2022-09-02T01:32:51.044Z,16.05
2022-09-02T01:35:18.282Z,16.05
2022-09-02T01:37:55.717Z,16.17
2022-09-02T01:40:25.553Z,16.16
2022-09-02T01:43:02.234Z,16.13
2022-09-02T01:45:30.170Z,15.89
2022-09-02T01:47:57.086Z,15.96
2022-09-02T01:50:24.280Z,15.99
2022-09-02T01:52:51.185Z,15.72
2022-09-02T01:55:18.009Z,15.95
2022-09-02T01:57:45.151Z,15.91
2022-09-02T02:00:13.961Z,16.03
2022-09-02T02:02:41.370Z,15.86
2022-09-02T02:05:11.499Z,15.97
2022-09-02T02:07:38.306Z,15.92
2022-09-02T02:10:07.943Z,15.88
2022-09-02T02:12:34.779Z,15.92
2022-09-02T02:15:05.185Z,15.93
2022-09-02T02:17:32.026Z,15.82
2022-09-02T02:19:59.009Z,15.74
2022-09-02T02:22:27.270Z,15.90
2022-09-02T02:24:54.923Z,15.76
2022-09-02T02:27:21.769Z,15.89
2022-09-02T02:29:48.792Z,15.76
2022-09-02T02:32:18.301Z,15.80
2022-09-02T02:34:46.357Z,15.96
2022-09-02T02:37:13.951Z,15.74
2022-09-02T02:39:41.932Z,15.84
2022-09-02T02:42:10.063Z,15.73
2022-09-02T02:44:37.025Z,15.84
2022-09-02T02:47:03.859Z,15.75
2022-09-02T02:49:30.717Z,15.79
2022-09-02T02:51:57.544Z,15.69
2022-09-02T02:54:24.461Z,15.74
2022-09-02T02:57:04.246Z,15.88
2022-09-02T02:59:31.943Z,15.72
2022-09-02T03:01:58.842Z,15.70
2022-09-02T03:04:25.741Z,15.59
2022-09-02T03:06:52.995Z,15.41
2022-09-02T03:09:20.327Z,15.52
2022-09-02T03:11:48.449Z,15.43
2022-09-02T03:14:16.934Z,15.48
2022-09-02T03:16:44.679Z,15.52
2022-09-02T03:19:14.089Z,15.43
2022-09-02T03:21:42.638Z,15.46
2022-09-02T03:24:12.175Z,15.48
2022-09-02T03:26:41.917Z,15.54
2022-09-02T03:29:08.758Z,15.43
2022-09-02T03:31:36.043Z,15.41
2022-09-02T03:34:04.270Z,15.30
2022-09-02T03:36:40.263Z,15.48
2022-09-02T03:39:10.002Z,15.52
2022-09-02T03:41:37.935Z,15.39
2022-09-02T03:44:05.397Z,15.42
2022-09-02T03:46:32.223Z,15.26
2022-09-02T03:48:59.108Z,15.25
2022-09-02T03:51:26.886Z,15.43
2022-09-02T03:53:54.578Z,15.32
2022-09-02T03:56:22.486Z,15.40
2022-09-02T03:58:51.662Z,15.36
2022-09-02T04:01:24.316Z,15.36
2022-09-02T04:03:54.902Z,15.29
2022-09-02T04:06:26.299Z,15.16
2022-09-02T04:09:00.162Z,15.20
2022-09-02T04:11:27.020Z,15.06
2022-09-02T04:13:56.947Z,15.21
2022-09-02T04:16:31.355Z,15.40
2022-09-02T04:19:01.569Z,15.21
2022-09-02T04:21:29.294Z,15.35
2022-09-02T04:23:56.800Z,15.17
2022-09-02T04:26:23.914Z,15.24
2022-09-02T04:28:51.809Z,15.25
2022-09-02T04:31:22.024Z,15.28
2022-09-02T04:33:49.048Z,15.17
2022-09-02T04:36:18.312Z,15.23
2022-09-02T04:38:47.785Z,15.22
2022-09-02T04:41:28.446Z,15.16
2022-09-02T04:43:57.972Z,15.19
2022-09-02T04:46:33.900Z,15.30
2022-09-02T04:49:02.450Z,15.25
2022-09-02T04:51:29.786Z,15.04
2022-09-02T04:53:57.409Z,15.18
2022-09-02T04:56:28.425Z,15.23
2022-09-02T04:58:55.849Z,15.12
2022-09-02T05:01:30.184Z,15.24
2022-09-02T05:03:57.063Z,15.16
2022-09-02T05:06:27.279Z,15.33
2022-09-02T05:08:56.879Z,15.25
2022-09-02T05:11:29.803Z,15.33
2022-09-02T05:14:00.250Z,15.31
2022-09-02T05:16:32.906Z,15.27
2022-09-02T05:19:00.588Z,15.11
2022-09-02T05:21:27.578Z,15.29
2022-09-02T05:23:54.641Z,15.27
2022-09-02T05:26:22.811Z,15.29
2022-09-02T05:28:50.548Z,15.13
2022-09-02T05:31:20.259Z,15.23
2022-09-02T05:33:48.766Z,15.12
2022-09-02T05:36:21.529Z,15.31
2022-09-02T05:38:49.268Z,15.35
2022-09-02T05:41:23.536Z,15.46
2022-09-02T05:43:54.524Z,15.53
2022-09-02T05:46:25.231Z,15.48
2022-09-02T05:49:06.645Z,15.55
2022-09-02T05:51:48.953Z,15.64
2022-09-02T05:54:30.034Z,15.62
2022-09-02T05:57:04.701Z,15.59
2022-09-02T05:59:32.513Z,15.58
2022-09-02T06:01:59.846Z,15.60
2022-09-02T06:04:26.933Z,15.53
2022-09-02T06:06:54.337Z,15.62
2022-09-02T06:09:23.763Z,15.86
2022-09-02T06:11:51.964Z,15.85
2022-09-02T06:14:25.000Z,15.92
2022-09-02T06:16:54.874Z,15.94
2022-09-02T06:19:25.175Z,15.84
2022-09-02T06:21:54.004Z,16.07
2022-09-02T06:24:22.349Z,16.13
2022-09-02T06:26:49.711Z,16.01
2022-09-02T06:29:16.660Z,16.18
2022-09-02T06:31:48.162Z,16.14
2022-09-02T06:34:16.392Z,16.39
2022-09-02T06:36:46.811Z,16.44
2022-09-02T06:39:19.761Z,16.39
2022-09-02T06:41:48.987Z,16.46
2022-09-02T06:44:18.648Z,16.60
2022-09-02T06:46:54.375Z,16.59
2022-09-02T06:49:22.739Z,16.73
2022-09-02T06:51:51.850Z,16.82
2022-09-02T06:54:21.390Z,16.73
2022-09-02T06:56:50.398Z,16.92
2022-09-02T06:59:21.272Z,16.92
2022-09-02T07:01:48.885Z,16.98
2022-09-02T07:04:35.727Z,17.02
2022-09-02T07:07:06.429Z,16.97
2022-09-02T07:09:33.358Z,16.98
2022-09-02T07:12:05.175Z,17.05
2022-09-02T07:14:43.742Z,17.21
2022-09-02T07:17:17.611Z,17.24
2022-09-02T07:19:45.183Z,17.27
2022-09-02T07:22:12.095Z,17.18
2022-09-02T07:24:39.002Z,17.21
2022-09-02T07:27:06.765Z,17.26
2022-09-02T07:29:35.771Z,17.31
2022-09-02T07:32:03.345Z,17.47
2022-09-02T07:34:31.741Z,17.26
2022-09-02T07:37:03.249Z,17.48
2022-09-02T07:39:32.085Z,17.47
2022-09-02T07:41:59.428Z,17.63
2022-09-02T07:44:27.347Z,17.60
2022-09-02T07:46:54.557Z,17.55
2022-09-02T07:49:24.099Z,17.67
2022-09-02T07:51:51.402Z,17.74
2022-09-02T07:54:25.221Z,17.85
2022-09-02T07:56:52.940Z,17.80
2022-09-02T07:59:21.774Z,17.83
2022-09-02T08:01:49.071Z,17.55
2022-09-02T08:04:18.703Z,17.97
2022-09-02T08:06:46.357Z,18.01
2022-09-02T08:09:13.826Z,17.94
2022-09-02T08:11:46.484Z,18.02
2022-09-02T08:14:18.114Z,18.05
2022-09-02T08:16:47.127Z,18.18
2022-09-02T08:19:15.291Z,18.06
2022-09-02T08:21:42.155Z,18.16
2022-09-02T08:24:10.019Z,18.24
2022-09-02T08:26:37.293Z,18.42
2022-09-02T08:29:05.655Z,18.38
2022-09-02T08:31:35.231Z,18.44
2022-09-02T08:34:02.307Z,18.39
2022-09-02T08:36:29.360Z,18.40
2022-09-02T08:38:56.287Z,18.36
2022-09-02T08:41:40.195Z,18.57
2022-09-02T08:44:07.608Z,18.64
2022-09-02T08:46:35.992Z,18.68
2022-09-02T08:49:08.993Z,18.74
2022-09-02T08:51:51.054Z,18.77
2022-09-02T08:54:38.013Z,18.92
2022-09-02T08:57:05.588Z,18.79
2022-09-02T08:59:32.758Z,19.02
2022-09-02T09:02:47.668Z,19.07
2022-09-02T09:05:47.724Z,19.10
2022-09-02T09:09:32.442Z,19.20
2022-09-02T09:12:20.512Z,19.17
2022-09-02T09:15:13.445Z,19.34
2022-09-02T09:17:48.713Z,19.31
2022-09-02T09:20:39.022Z,19.44
2022-09-02T09:23:22.204Z,19.45
2022-09-02T09:25:51.064Z,19.46
2022-09-02T09:28:17.929Z,19.47
2022-09-02T09:30:45.519Z,19.55
2022-09-02T09:33:18.159Z,19.79
2022-09-02T09:36:05.473Z,19.71
2022-09-02T09:38:36.729Z,19.80
2022-09-02T09:41:30.104Z,19.76
2022-09-02T09:43:58.021Z,19.95
2022-09-02T09:46:32.281Z,20.01
2022-09-02T09:48:59.770Z,20.10
2022-09-02T09:51:26.742Z,20.11
2022-09-02T09:54:15.668Z,20.33
2022-09-02T09:56:42.472Z,20.33
2022-09-02T09:59:39.040Z,20.42
2022-09-02T10:02:05.926Z,20.42
2022-09-02T10:04:49.248Z,20.46
2022-09-02T10:07:39.991Z,20.67
2022-09-02T10:10:19.374Z,20.87
2022-09-02T10:12:49.331Z,20.91
2022-09-02T10:15:34.866Z,21.03
2022-09-02T10:18:28.491Z,21.13
2022-09-02T10:21:45.134Z,21.25
2022-09-02T10:24:53.451Z,21.37
2022-09-02T10:27:53.012Z,21.50
2022-09-02T10:30:28.998Z,21.50
2022-09-02T10:33:39.318Z,21.75
2022-09-02T10:36:25.433Z,21.81
2022-09-02T10:38:52.453Z,21.86
2022-09-02T10:41:59.050Z,22.01
2022-09-02T10:44:43.751Z,21.95
2022-09-02T10:47:29.419Z,21.92
2022-09-02T10:50:53.288Z,22.14
2022-09-02T10:53:38.929Z,22.12
2022-09-02T10:56:13.775Z,22.19
2022-09-02T11:01:46.571Z,22.20
2022-09-02T11:04:31.054Z,22.04
2022-09-02T11:07:03.326Z,22.20
2022-09-02T11:09:40.713Z,22.19
2022-09-02T11:12:47.827Z,22.18
2022-09-02T11:15:40.805Z,22.21
2022-09-02T11:18:27.374Z,22.15
2022-09-02T11:21:25.150Z,22.30
2022-09-02T11:24:23.492Z,22.34
2022-09-02T11:27:41.519Z,22.46
2022-09-02T11:30:18.057Z,22.44
2022-09-02T11:33:09.868Z,22.50
2022-09-02T11:35:39.277Z,22.37
2022-09-02T11:38:41.564Z,22.81
2022-09-02T11:44:54.961Z,22.95
2022-09-02T11:47:45.505Z,23.02
2022-09-02T11:50:54.329Z,23.01
2022-09-02T11:53:38.687Z,22.92
2022-09-02T11:56:21.946Z,22.89
2022-09-02T11:58:53.232Z,22.96
2022-09-02T12:01:34.007Z,23.18
2022-09-02T12:04:58.458Z,23.30
2022-09-02T12:07:13.570Z,23.31
2022-09-02T12:09:55.454Z,23.30
2022-09-02T12:12:38.237Z,23.25
2022-09-02T12:15:05.475Z,23.29
2022-09-02T12:17:49.813Z,23.30
2022-09-02T12:20:38.859Z,23.26
2022-09-02T12:23:09.037Z,23.25
2022-09-02T12:25:38.551Z,23.44
2022-09-02T12:28:27.098Z,23.39
2022-09-02T12:31:07.523Z,23.48
2022-09-02T12:33:39.263Z,23.44
2022-09-02T12:36:39.937Z,23.53
2022-09-02T12:39:27.568Z,23.68
2022-09-02T12:42:04.135Z,23.70
2022-09-02T12:44:52.967Z,23.47
2022-09-02T12:47:19.829Z,23.54
2022-09-02T12:50:25.446Z,23.49
2022-09-02T12:53:11.233Z,23.51
2022-09-02T12:55:38.725Z,23.56
2022-09-02T12:58:14.526Z,23.29
2022-09-02T13:01:02.671Z,23.81
2022-09-02T13:03:35.172Z,23.76
2022-09-02T13:06:46.799Z,23.79
2022-09-02T13:10:21.483Z,23.79
2022-09-02T13:13:03.867Z,23.79
2022-09-02T13:16:04.186Z,23.78
2022-09-02T13:18:55.630Z,23.79
2022-09-02T13:21:54.641Z,23.79
2022-09-02T13:24:44.868Z,23.65
2022-09-02T13:27:46.213Z,23.94
2022-09-02T13:30:33.102Z,24.28
2022-09-02T13:33:09.442Z,24.25
2022-09-02T13:35:40.662Z,24.37
2022-09-02T13:38:12.906Z,24.37
2022-09-02T13:40:41.164Z,24.23
2022-09-02T13:43:13.877Z,24.26
2022-09-02T13:45:41.890Z,24.27
2022-09-02T13:48:23.430Z,24.12
2022-09-02T13:50:53.724Z,24.14
2022-09-02T13:53:45.533Z,24.17
2022-09-02T13:56:27.243Z,24.13
2022-09-02T13:58:58.397Z,24.16
2022-09-02T14:01:38.149Z,24.25
2022-09-02T14:04:11.742Z,24.10
2022-09-02T14:06:43.138Z,24.38
2022-09-02T14:09:39.905Z,24.24
2022-09-02T14:12:07.750Z,24.36
2022-09-02T14:14:35.151Z,24.43
2022-09-02T14:17:21.298Z,24.43
2022-09-02T14:19:48.632Z,24.42
2022-09-02T14:22:28.698Z,24.40
2022-09-02T14:24:56.580Z,24.43
2022-09-02T14:27:24.510Z,24.42
2022-09-02T14:29:57.839Z,24.28
2022-09-02T14:32:28.091Z,24.46
2022-09-02T14:35:16.648Z,24.47
2022-09-02T14:37:59.484Z,24.56
2022-09-02T14:40:40.436Z,24.47
2022-09-02T14:43:14.522Z,24.47
2022-09-02T14:45:47.730Z,24.40
2022-09-02T14:48:22.762Z,24.85
2022-09-02T14:51:02.642Z,24.63
2022-09-02T14:53:29.954Z,24.60
2022-09-02T14:55:57.576Z,24.63
2022-09-02T14:58:27.691Z,24.63
2022-09-02T15:00:58.732Z,24.84
2022-09-02T15:03:26.279Z,24.77
2022-09-02T15:05:53.828Z,24.62
2022-09-02T15:08:21.707Z,24.63
2022-09-02T15:10:48.888Z,24.71
2022-09-02T15:13:30.260Z,24.72
2022-09-02T15:15:57.307Z,24.81
2022-09-02T15:18:24.431Z,24.80
2022-09-02T15:20:52.282Z,24.77
2022-09-02T15:23:19.207Z,24.77
2022-09-02T15:25:46.221Z,24.83
2022-09-02T15:28:13.616Z,24.84
2022-09-02T15:30:40.683Z,24.77
2022-09-02T15:33:09.188Z,24.89
2022-09-02T15:35:43.609Z,24.84
2022-09-02T15:38:10.428Z,24.79
2022-09-02T15:40:37.220Z,24.91
2022-09-02T15:43:04.024Z,25.02
2022-09-02T15:45:31.144Z,25.00
2022-09-02T15:47:59.485Z,24.92
2022-09-02T15:50:28.277Z,24.87
2022-09-02T15:52:56.004Z,24.83
2022-09-02T15:55:29.341Z,24.73
2022-09-02T15:57:56.930Z,24.83
2022-09-02T16:00:27.533Z,24.78
2022-09-02T16:02:56.793Z,24.70
2022-09-02T16:05:24.146Z,24.81
2022-09-02T16:07:52.103Z,24.78
2022-09-02T16:10:18.932Z,24.65
2022-09-02T16:12:45.803Z,24.64
2022-09-02T16:15:12.712Z,24.65
2022-09-02T16:17:39.529Z,24.70
2022-09-02T16:20:06.840Z,24.78
2022-09-02T16:22:33.873Z,24.84
2022-09-02T16:25:01.905Z,24.98
2022-09-02T16:27:46.998Z,24.81
2022-09-02T16:30:13.869Z,24.68
2022-09-02T16:32:40.786Z,24.61
2022-09-02T16:35:08.650Z,24.64
2022-09-02T16:37:35.458Z,24.46
2022-09-02T16:40:03.346Z,24.38
2022-09-02T16:42:32.036Z,24.44
2022-09-02T16:45:00.796Z,24.14
2022-09-02T16:47:27.657Z,24.26
2022-09-02T16:49:54.632Z,24.23
2022-09-02T16:52:21.545Z,24.26
2022-09-02T16:54:48.883Z,24.17
2022-09-02T16:57:15.866Z,24.18
2022-09-02T16:59:42.688Z,24.01
2022-09-02T17:02:09.615Z,24.04
2022-09-02T17:04:36.537Z,24.10
2022-09-02T17:07:03.385Z,24.00
2022-09-02T17:09:31.241Z,24.10
2022-09-02T17:11:58.054Z,23.94
2022-09-02T17:14:25.232Z,23.84
2022-09-02T17:16:52.273Z,23.92
2022-09-02T17:19:26.189Z,23.87
2022-09-02T17:21:56.839Z,23.65
2022-09-02T17:24:31.011Z,23.67
2022-09-02T17:27:00.236Z,23.60
2022-09-02T17:29:48.599Z,23.62
2022-09-02T17:32:18.887Z,23.56
2022-09-02T17:34:45.785Z,23.48
2022-09-02T17:37:12.873Z,23.47
2022-09-02T17:39:39.762Z,23.18
2022-09-02T17:42:07.066Z,23.18
2022-09-02T17:44:38.423Z,23.24
2022-09-02T17:47:12.030Z,23.28
2022-09-02T17:49:44.394Z,23.26
2022-09-02T17:52:20.757Z,23.14
2022-09-02T17:54:51.442Z,23.16
2022-09-02T17:57:33.495Z,23.09
2022-09-02T18:00:09.809Z,22.97
2022-09-02T18:02:43.896Z,22.98
2022-09-02T18:05:28.932Z,22.86
2022-09-02T18:08:22.864Z,22.87
2022-09-02T18:10:58.029Z,22.84
2022-09-02T18:14:01.677Z,22.74
2022-09-02T18:17:13.735Z,22.64
2022-09-02T18:20:09.357Z,22.59
2022-09-02T18:23:10.393Z,22.57
2022-09-02T18:26:08.670Z,22.36
2022-09-02T18:29:16.189Z,22.50
2022-09-02T18:32:16.974Z,22.45
2022-09-02T18:35:09.634Z,22.38
2022-09-02T18:38:10.068Z,22.35
2022-09-02T18:40:44.175Z,22.33
2022-09-02T18:43:34.812Z,22.06
2022-09-02T18:46:02.555Z,22.17
2022-09-02T18:48:36.534Z,22.19
2022-09-02T18:51:18.977Z,22.14
2022-09-02T18:53:53.353Z,22.02
2022-09-02T18:56:25.865Z,21.88
2022-09-02T18:59:10.773Z,21.95
2022-09-02T19:01:44.742Z,21.87
2022-09-02T19:04:11.805Z,21.82
2022-09-02T19:06:41.500Z,21.78
2022-09-02T19:09:13.808Z,21.80
2022-09-02T19:11:42.128Z,21.73
2022-09-02T19:14:28.039Z,21.80
2022-09-02T19:17:00.037Z,21.77
2022-09-02T19:19:29.537Z,21.67
2022-09-02T19:22:03.821Z,21.61
2022-09-02T19:24:42.764Z,21.69
2022-09-02T19:27:22.560Z,21.54
2022-09-02T19:29:56.285Z,21.56
2022-09-02T19:32:27.858Z,21.50
2022-09-02T19:34:55.978Z,21.42
2022-09-02T19:37:24.099Z,21.48
2022-09-02T19:39:54.062Z,21.36
2022-09-02T19:42:24.210Z,21.38
2022-09-02T19:44:51.214Z,21.35
2022-09-02T19:48:05.043Z,21.42
2022-09-02T19:50:07.176Z,21.42
2022-09-02T19:52:42.805Z,21.38
2022-09-02T19:55:12.015Z,21.35
2022-09-02T19:57:41.836Z,21.16
2022-09-02T20:00:11.447Z,21.30
2022-09-02T20:02:41.548Z,21.10
2022-09-02T20:05:13.824Z,21.20
2022-09-02T20:07:40.838Z,21.12
2022-09-02T20:10:08.909Z,21.24
2022-09-02T20:12:36.644Z,21.08
2022-09-02T20:15:06.714Z,21.06
2022-09-02T20:17:34.753Z,21.17
2022-09-02T20:20:18.396Z,21.11
2022-09-02T20:22:49.318Z,21.16
2022-09-02T20:25:16.261Z,21.03
2022-09-02T20:28:06.099Z,21.13
2022-09-02T20:30:36.688Z,21.07
2022-09-02T20:33:30.346Z,20.92
2022-09-02T20:36:30.887Z,20.87
2022-09-02T20:39:22.407Z,20.97
2022-09-02T20:42:20.200Z,20.90
2022-09-02T20:45:26.041Z,20.89
2022-09-02T20:48:52.053Z,20.79
2022-09-02T20:51:52.133Z,20.81
2022-09-02T20:54:36.876Z,20.87
2022-09-02T20:57:29.530Z,20.87
2022-09-02T21:00:09.322Z,20.84
2022-09-02T21:03:00.850Z,20.77
2022-09-02T21:05:50.804Z,20.65
2022-09-02T21:08:38.404Z,20.66
2022-09-02T21:11:14.681Z,20.63
2022-09-02T21:13:58.806Z,20.61
2022-09-02T21:16:38.652Z,20.72
2022-09-02T21:19:35.536Z,20.69
2022-09-02T21:22:10.442Z,20.74
2022-09-02T21:24:54.420Z,20.70
2022-09-02T21:27:29.234Z,20.59
2022-09-02T21:30:12.076Z,20.46
2022-09-02T21:33:01.859Z,20.62
2022-09-02T21:35:41.057Z,20.54
2022-09-02T21:38:37.125Z,20.59
2022-09-02T21:41:34.025Z,20.55
2022-09-02T21:44:38.857Z,20.56
2022-09-02T21:47:22.185Z,20.41
2022-09-02T21:50:21.906Z,20.42
2022-09-02T21:53:19.952Z,20.47
2022-09-02T21:56:42.545Z,20.14
2022-09-02T21:59:38.699Z,20.43
2022-09-02T22:02:40.174Z,20.41
2022-09-02T22:05:33.860Z,20.35
2022-09-02T22:08:18.711Z,20.35
2022-09-02T22:11:01.848Z,20.25
2022-09-02T22:13:32.800Z,20.18
2022-09-02T22:16:14.873Z,20.19
2022-09-02T22:19:02.588Z,20.12
2022-09-02T22:21:48.030Z,19.99
2022-09-02T22:24:29.039Z,20.05
2022-09-02T22:27:06.291Z,19.84
2022-09-02T22:29:44.021Z,19.89
2022-09-02T22:32:14.747Z,19.93
2022-09-02T22:35:10.687Z,19.93
2022-09-02T22:37:58.327Z,19.89
2022-09-02T22:40:32.361Z,19.86
2022-09-02T22:43:07.389Z,19.80
2022-09-02T22:46:11.937Z,19.76
2022-09-02T22:49:07.373Z,19.73
2022-09-02T22:52:02.762Z,19.80
2022-09-02T22:54:31.930Z,19.76
2022-09-02T22:57:13.243Z,19.72
2022-09-02T23:00:14.422Z,19.65
2022-09-02T23:03:14.679Z,19.74
2022-09-02T23:06:01.097Z,19.61
2022-09-02T23:08:28.082Z,19.59
2022-09-02T23:11:16.469Z,19.60
2022-09-02T23:14:08.868Z,19.62
2022-09-02T23:17:34.681Z,19.53
2022-09-02T23:20:15.783Z,19.33
2022-09-02T23:23:10.776Z,19.50
2022-09-02T23:26:09.440Z,19.42
2022-09-02T23:28:45.251Z,19.18
2022-09-02T23:32:06.181Z,19.43
2022-09-02T23:34:58.426Z,19.50
2022-09-02T23:37:55.055Z,19.52
2022-09-02T23:40:21.790Z,19.51
2022-09-02T23:42:49.811Z,19.52
2022-09-02T23:45:32.787Z,19.49
2022-09-02T23:48:36.611Z,19.50
2022-09-02T23:51:41.030Z,19.50
2022-09-02T23:54:11.510Z,19.49
2022-09-02T23:57:27.279Z,19.47
